sensor_id;sensor_type;location;lat;lon;timestamp;P1;durP1;ratioP1;P2;durP2;ratioP2
56712;SDS011;42589;45.536;9.032;2023-04-01T00:00:30;17.60;;;15.35;;
56712;SDS011;42589;45.536;9.032;2023-04-01T00:03:31;18.50;;;15.20;;
56712;SDS011;42589;45.536;9.032;2023-04-01T00:06:33;16.08;;;14.38;;
56712;SDS011;42589;45.536;9.032;2023-04-01T00:09:34;16.83;;;14.85;;
56712;SDS011;42589;45.536;9.032;2023-04-01T00:12:35;17.60;;;15.00;;
56712;SDS011;42589;45.536;9.032;2023-04-01T00:15:36;17.58;;;15.20;;
56712;SDS011;42589;45.536;9.032;2023-04-01T00:18:38;15.85;;;14.23;;
56712;SDS011;42589;45.536;9.032;2023-04-01T00:21:39;18.45;;;14.85;;
56712;SDS011;42589;45.536;9.032;2023-04-01T00:24:40;16.27;;;13.07;;
56712;SDS011;42589;45.536;9.032;2023-04-01T00:27:41;13.90;;;12.18;;
56712;SDS011;42589;45.536;9.032;2023-04-01T00:30:42;14.55;;;12.70;;
56712;SDS011;42589;45.536;9.032;2023-04-01T00:33:43;13.07;;;11.68;;
56712;SDS011;42589;45.536;9.032;2023-04-01T00:36:44;12.93;;;11.27;;
56712;SDS011;42589;45.536;9.032;2023-04-01T00:39:45;13.70;;;10.68;;
56712;SDS011;42589;45.536;9.032;2023-04-01T00:42:46;14.35;;;12.13;;
56712;SDS011;42589;45.536;9.032;2023-04-01T00:45:48;12.10;;;10.48;;
56712;SDS011;42589;45.536;9.032;2023-04-01T00:48:51;11.15;;;9.95;;
56712;SDS011;42589;45.536;9.032;2023-04-01T00:51:54;11.02;;;9.90;;
56712;SDS011;42589;45.536;9.032;2023-04-01T00:54:57;10.90;;;8.88;;
56712;SDS011;42589;45.536;9.032;2023-04-01T00:58:01;10.75;;;9.60;;
56712;SDS011;42589;45.536;9.032;2023-04-01T01:04:06;10.13;;;8.95;;
56712;SDS011;42589;45.536;9.032;2023-04-01T01:07:36;10.65;;;9.55;;
56712;SDS011;42589;45.536;9.032;2023-04-01T01:10:50;10.60;;;8.82;;
56712;SDS011;42589;45.536;9.032;2023-04-01T01:14:09;9.80;;;8.80;;
56712;SDS011;42589;45.536;9.032;2023-04-01T01:17:32;9.10;;;8.20;;
56712;SDS011;42589;45.536;9.032;2023-04-01T01:24:13;9.07;;;7.30;;
56712;SDS011;42589;45.536;9.032;2023-04-01T01:27:28;8.13;;;7.35;;
56712;SDS011;42589;45.536;9.032;2023-04-01T01:30:34;9.00;;;6.88;;
56712;SDS011;42589;45.536;9.032;2023-04-01T01:37:12;8.07;;;7.28;;
56712;SDS011;42589;45.536;9.032;2023-04-01T01:40:17;7.70;;;6.82;;
56712;SDS011;42589;45.536;9.032;2023-04-01T01:43:22;7.75;;;7.00;;
56712;SDS011;42589;45.536;9.032;2023-04-01T01:46:26;9.27;;;7.10;;
56712;SDS011;42589;45.536;9.032;2023-04-01T01:49:30;7.78;;;7.07;;
56712;SDS011;42589;45.536;9.032;2023-04-01T01:52:33;8.32;;;7.53;;
56712;SDS011;42589;45.536;9.032;2023-04-01T01:55:35;8.27;;;7.35;;
56712;SDS011;42589;45.536;9.032;2023-04-01T01:58:39;9.17;;;7.83;;
56712;SDS011;42589;45.536;9.032;2023-04-01T02:01:51;9.00;;;8.07;;
56712;SDS011;42589;45.536;9.032;2023-04-01T02:04:55;8.95;;;8.05;;
56712;SDS011;42589;45.536;9.032;2023-04-01T02:08:05;10.88;;;8.07;;
56712;SDS011;42589;45.536;9.032;2023-04-01T02:11:11;9.73;;;8.30;;
56712;SDS011;42589;45.536;9.032;2023-04-01T02:14:14;11.60;;;8.05;;
56712;SDS011;42589;45.536;9.032;2023-04-01T02:17:19;8.80;;;7.82;;
56712;SDS011;42589;45.536;9.032;2023-04-01T02:20:22;9.55;;;8.02;;
56712;SDS011;42589;45.536;9.032;2023-04-01T02:23:24;8.57;;;7.68;;
56712;SDS011;42589;45.536;9.032;2023-04-01T02:26:27;8.27;;;7.47;;
56712;SDS011;42589;45.536;9.032;2023-04-01T02:29:31;9.23;;;7.82;;
56712;SDS011;42589;45.536;9.032;2023-04-01T02:32:33;9.07;;;8.15;;
56712;SDS011;42589;45.536;9.032;2023-04-01T02:35:36;9.15;;;8.23;;
56712;SDS011;42589;45.536;9.032;2023-04-01T02:38:37;10.15;;;8.82;;
56712;SDS011;42589;45.536;9.032;2023-04-01T02:41:39;10.52;;;8.00;;
56712;SDS011;42589;45.536;9.032;2023-04-01T02:44:41;9.07;;;7.95;;
56712;SDS011;42589;45.536;9.032;2023-04-01T02:47:42;8.75;;;7.85;;
56712;SDS011;42589;45.536;9.032;2023-04-01T02:50:42;8.98;;;8.07;;
56712;SDS011;42589;45.536;9.032;2023-04-01T02:53:43;8.77;;;7.57;;
56712;SDS011;42589;45.536;9.032;2023-04-01T02:56:45;9.32;;;8.05;;
56712;SDS011;42589;45.536;9.032;2023-04-01T02:59:46;8.90;;;8.00;;
56712;SDS011;42589;45.536;9.032;2023-04-01T03:02:47;8.20;;;7.40;;
56712;SDS011;42589;45.536;9.032;2023-04-01T03:05:48;11.15;;;8.70;;
56712;SDS011;42589;45.536;9.032;2023-04-01T03:08:50;9.80;;;8.73;;
56712;SDS011;42589;45.536;9.032;2023-04-01T03:11:51;9.40;;;8.38;;
56712;SDS011;42589;45.536;9.032;2023-04-01T03:14:52;11.15;;;8.25;;
56712;SDS011;42589;45.536;9.032;2023-04-01T03:17:54;9.23;;;8.30;;
56712;SDS011;42589;45.536;9.032;2023-04-01T03:20:55;9.70;;;8.60;;
56712;SDS011;42589;45.536;9.032;2023-04-01T03:23:57;9.80;;;8.63;;
56712;SDS011;42589;45.536;9.032;2023-04-01T03:26:58;10.15;;;8.27;;
56712;SDS011;42589;45.536;9.032;2023-04-01T03:30:07;9.85;;;8.30;;
56712;SDS011;42589;45.536;9.032;2023-04-01T03:33:08;8.48;;;7.63;;
56712;SDS011;42589;45.536;9.032;2023-04-01T03:36:10;11.05;;;8.40;;
56712;SDS011;42589;45.536;9.032;2023-04-01T03:39:12;10.18;;;8.30;;
56712;SDS011;42589;45.536;9.032;2023-04-01T03:42:12;9.23;;;7.65;;
56712;SDS011;42589;45.536;9.032;2023-04-01T03:45:14;9.68;;;7.70;;
56712;SDS011;42589;45.536;9.032;2023-04-01T03:48:15;9.50;;;7.63;;
56712;SDS011;42589;45.536;9.032;2023-04-01T03:51:17;10.45;;;7.85;;
56712;SDS011;42589;45.536;9.032;2023-04-01T03:54:18;10.02;;;7.85;;
56712;SDS011;42589;45.536;9.032;2023-04-01T03:57:20;8.80;;;7.13;;
56712;SDS011;42589;45.536;9.032;2023-04-01T04:00:21;8.98;;;7.40;;
56712;SDS011;42589;45.536;9.032;2023-04-01T04:03:22;7.95;;;6.72;;
56712;SDS011;42589;45.536;9.032;2023-04-01T04:06:23;8.32;;;7.53;;
56712;SDS011;42589;45.536;9.032;2023-04-01T04:09:24;7.47;;;6.70;;
56712;SDS011;42589;45.536;9.032;2023-04-01T04:12:24;8.75;;;7.03;;
56712;SDS011;42589;45.536;9.032;2023-04-01T04:15:28;8.63;;;7.22;;
56712;SDS011;42589;45.536;9.032;2023-04-01T04:18:30;9.02;;;7.20;;
56712;SDS011;42589;45.536;9.032;2023-04-01T04:21:31;8.77;;;7.38;;
56712;SDS011;42589;45.536;9.032;2023-04-01T04:24:33;8.70;;;6.97;;
56712;SDS011;42589;45.536;9.032;2023-04-01T04:27:35;8.43;;;7.28;;
56712;SDS011;42589;45.536;9.032;2023-04-01T04:30:36;8.88;;;6.55;;
56712;SDS011;42589;45.536;9.032;2023-04-01T04:33:37;8.75;;;6.80;;
56712;SDS011;42589;45.536;9.032;2023-04-01T04:36:38;7.93;;;6.75;;
56712;SDS011;42589;45.536;9.032;2023-04-01T04:39:39;9.20;;;7.25;;
56712;SDS011;42589;45.536;9.032;2023-04-01T04:42:41;8.60;;;7.05;;
56712;SDS011;42589;45.536;9.032;2023-04-01T04:45:43;8.27;;;6.68;;
56712;SDS011;42589;45.536;9.032;2023-04-01T04:48:43;9.05;;;7.25;;
56712;SDS011;42589;45.536;9.032;2023-04-01T04:51:44;8.82;;;6.72;;
56712;SDS011;42589;45.536;9.032;2023-04-01T04:54:45;9.38;;;6.82;;
56712;SDS011;42589;45.536;9.032;2023-04-01T04:57:46;7.93;;;6.97;;
56712;SDS011;42589;45.536;9.032;2023-04-01T05:00:47;8.27;;;6.47;;
56712;SDS011;42589;45.536;9.032;2023-04-01T05:03:47;7.78;;;6.50;;
56712;SDS011;42589;45.536;9.032;2023-04-01T05:06:48;8.75;;;6.35;;
56712;SDS011;42589;45.536;9.032;2023-04-01T05:09:49;9.05;;;6.95;;
56712;SDS011;42589;45.536;9.032;2023-04-01T05:12:51;8.00;;;6.50;;
56712;SDS011;42589;45.536;9.032;2023-04-01T05:15:53;7.68;;;6.40;;
56712;SDS011;42589;45.536;9.032;2023-04-01T05:18:56;8.30;;;6.10;;
56712;SDS011;42589;45.536;9.032;2023-04-01T05:21:57;7.55;;;6.65;;
56712;SDS011;42589;45.536;9.032;2023-04-01T05:24:58;8.57;;;6.80;;
56712;SDS011;42589;45.536;9.032;2023-04-01T05:27:59;6.80;;;6.10;;
56712;SDS011;42589;45.536;9.032;2023-04-01T05:31:00;8.85;;;6.43;;
56712;SDS011;42589;45.536;9.032;2023-04-01T05:34:06;7.05;;;5.97;;
56712;SDS011;42589;45.536;9.032;2023-04-01T05:37:07;6.03;;;5.40;;
56712;SDS011;42589;45.536;9.032;2023-04-01T05:40:07;8.07;;;5.85;;
56712;SDS011;42589;45.536;9.032;2023-04-01T05:43:09;8.02;;;6.45;;
56712;SDS011;42589;45.536;9.032;2023-04-01T05:46:10;7.72;;;6.07;;
56712;SDS011;42589;45.536;9.032;2023-04-01T05:49:11;7.50;;;5.50;;
56712;SDS011;42589;45.536;9.032;2023-04-01T05:52:15;5.32;;;4.80;;
56712;SDS011;42589;45.536;9.032;2023-04-01T05:55:16;7.80;;;4.72;;
56712;SDS011;42589;45.536;9.032;2023-04-01T05:58:17;6.32;;;4.70;;
56712;SDS011;42589;45.536;9.032;2023-04-01T06:01:19;5.90;;;4.25;;
56712;SDS011;42589;45.536;9.032;2023-04-01T06:04:19;6.82;;;5.10;;
56712;SDS011;42589;45.536;9.032;2023-04-01T06:07:20;6.43;;;4.05;;
56712;SDS011;42589;45.536;9.032;2023-04-01T06:10:22;4.13;;;3.72;;
56712;SDS011;42589;45.536;9.032;2023-04-01T06:38:58;4.07;;;2.80;;
56712;SDS011;42589;45.536;9.032;2023-04-01T06:41:44;4.43;;;2.80;;
56712;SDS011;42589;45.536;9.032;2023-04-01T06:45:16;4.43;;;2.72;;
56712;SDS011;42589;45.536;9.032;2023-04-01T06:48:32;3.50;;;2.60;;
56712;SDS011;42589;45.536;9.032;2023-04-01T06:51:42;4.25;;;2.75;;
56712;SDS011;42589;45.536;9.032;2023-04-01T06:55:02;3.28;;;2.55;;
56712;SDS011;42589;45.536;9.032;2023-04-01T06:58:11;4.03;;;2.03;;
56712;SDS011;42589;45.536;9.032;2023-04-01T07:04:39;2.78;;;2.45;;
56712;SDS011;42589;45.536;9.032;2023-04-01T07:07:45;2.20;;;2.00;;
56712;SDS011;42589;45.536;9.032;2023-04-01T07:11:09;3.42;;;2.33;;
56712;SDS011;42589;45.536;9.032;2023-04-01T07:14:32;2.72;;;2.30;;
56712;SDS011;42589;45.536;9.032;2023-04-01T07:17:36;3.60;;;2.20;;
56712;SDS011;42589;45.536;9.032;2023-04-01T07:20:40;4.28;;;2.08;;
56712;SDS011;42589;45.536;9.032;2023-04-01T07:23:42;3.25;;;2.20;;
56712;SDS011;42589;45.536;9.032;2023-04-01T07:26:46;3.25;;;1.90;;
56712;SDS011;42589;45.536;9.032;2023-04-01T07:29:49;5.17;;;1.93;;
56712;SDS011;42589;45.536;9.032;2023-04-01T07:33:00;4.15;;;1.92;;
56712;SDS011;42589;45.536;9.032;2023-04-01T07:55:23;1.63;;;1.52;;
56712;SDS011;42589;45.536;9.032;2023-04-01T07:58:37;3.20;;;1.30;;
56712;SDS011;42589;45.536;9.032;2023-04-01T08:05:49;2.47;;;1.80;;
56712;SDS011;42589;45.536;9.032;2023-04-01T08:15:26;3.47;;;2.10;;
56712;SDS011;42589;45.536;9.032;2023-04-01T08:18:31;4.72;;;2.15;;
56712;SDS011;42589;45.536;9.032;2023-04-01T08:21:47;1.90;;;1.50;;
56712;SDS011;42589;45.536;9.032;2023-04-01T08:24:52;3.05;;;1.60;;
56712;SDS011;42589;45.536;9.032;2023-04-01T08:31:36;3.53;;;1.58;;
56712;SDS011;42589;45.536;9.032;2023-04-01T08:34:44;3.83;;;1.80;;
56712;SDS011;42589;45.536;9.032;2023-04-01T08:37:54;3.72;;;2.17;;
56712;SDS011;42589;45.536;9.032;2023-04-01T08:44:34;5.97;;;3.60;;
56712;SDS011;42589;45.536;9.032;2023-04-01T09:00:53;8.05;;;3.95;;
56712;SDS011;42589;45.536;9.032;2023-04-01T09:10:36;4.65;;;3.80;;
56712;SDS011;42589;45.536;9.032;2023-04-01T09:20:38;4.75;;;3.28;;
56712;SDS011;42589;45.536;9.032;2023-04-01T09:24:07;4.05;;;2.88;;
56712;SDS011;42589;45.536;9.032;2023-04-01T09:27:29;4.45;;;3.17;;
56712;SDS011;42589;45.536;9.032;2023-04-01T09:30:45;3.07;;;2.07;;
56712;SDS011;42589;45.536;9.032;2023-04-01T09:34:12;2.15;;;1.73;;
56712;SDS011;42589;45.536;9.032;2023-04-01T09:37:41;2.67;;;2.15;;
56712;SDS011;42589;45.536;9.032;2023-04-01T09:40:56;1.85;;;1.50;;
56712;SDS011;42589;45.536;9.032;2023-04-01T09:44:15;2.47;;;1.83;;
56712;SDS011;42589;45.536;9.032;2023-04-01T09:47:49;4.22;;;1.85;;
56712;SDS011;42589;45.536;9.032;2023-04-01T09:54:32;1.48;;;1.38;;
56712;SDS011;42589;45.536;9.032;2023-04-01T10:11:52;2.30;;;1.17;;
56712;SDS011;42589;45.536;9.032;2023-04-01T10:21:57;1.13;;;1.05;;
56712;SDS011;42589;45.536;9.032;2023-04-01T10:28:50;1.15;;;0.70;;
56712;SDS011;42589;45.536;9.032;2023-04-01T10:32:38;2.45;;;1.00;;
56712;SDS011;42589;45.536;9.032;2023-04-01T10:39:49;2.50;;;1.33;;
56712;SDS011;42589;45.536;9.032;2023-04-01T10:50:12;1.88;;;0.82;;
56712;SDS011;42589;45.536;9.032;2023-04-01T10:53:34;1.13;;;1.00;;
56712;SDS011;42589;45.536;9.032;2023-04-01T10:57:28;2.70;;;1.00;;
56712;SDS011;42589;45.536;9.032;2023-04-01T11:07:45;1.40;;;0.82;;
56712;SDS011;42589;45.536;9.032;2023-04-01T11:11:42;0.90;;;0.75;;
56712;SDS011;42589;45.536;9.032;2023-04-01T11:21:46;1.33;;;0.90;;
56712;SDS011;42589;45.536;9.032;2023-04-01T11:35:50;1.08;;;0.60;;
56712;SDS011;42589;45.536;9.032;2023-04-01T11:39:53;1.58;;;0.77;;
56712;SDS011;42589;45.536;9.032;2023-04-01T11:42:45;3.72;;;0.70;;
56712;SDS011;42589;45.536;9.032;2023-04-01T11:45:59;0.82;;;0.50;;
56712;SDS011;42589;45.536;9.032;2023-04-01T11:49:07;1.05;;;0.50;;
56712;SDS011;42589;45.536;9.032;2023-04-01T11:55:58;1.40;;;0.90;;
56712;SDS011;42589;45.536;9.032;2023-04-01T12:02:32;1.83;;;0.57;;
56712;SDS011;42589;45.536;9.032;2023-04-01T12:09:23;0.45;;;0.45;;
56712;SDS011;42589;45.536;9.032;2023-04-01T12:16:10;0.60;;;0.50;;
56712;SDS011;42589;45.536;9.032;2023-04-01T12:19:45;0.63;;;0.40;;
56712;SDS011;42589;45.536;9.032;2023-04-01T12:23:02;0.82;;;0.77;;
56712;SDS011;42589;45.536;9.032;2023-04-01T12:36:48;0.43;;;0.40;;
56712;SDS011;42589;45.536;9.032;2023-04-01T12:46:40;0.50;;;0.50;;
56712;SDS011;42589;45.536;9.032;2023-04-01T13:00:23;1.10;;;0.50;;
56712;SDS011;42589;45.536;9.032;2023-04-01T13:03:35;1.35;;;0.75;;
56712;SDS011;42589;45.536;9.032;2023-04-01T13:10:07;0.38;;;0.30;;
56712;SDS011;42589;45.536;9.032;2023-04-01T13:16:42;3.83;;;0.70;;
56712;SDS011;42589;45.536;9.032;2023-04-01T13:20:02;4.85;;;0.57;;
56712;SDS011;42589;45.536;9.032;2023-04-01T13:23:22;2.75;;;0.68;;
56712;SDS011;42589;45.536;9.032;2023-04-01T13:29:40;0.55;;;0.55;;
56712;SDS011;42589;45.536;9.032;2023-04-01T13:36:22;0.40;;;0.32;;
56712;SDS011;42589;45.536;9.032;2023-04-01T13:39:57;3.08;;;0.40;;
56712;SDS011;42589;45.536;9.032;2023-04-01T14:03:27;1.58;;;0.38;;
56712;SDS011;42589;45.536;9.032;2023-04-01T14:13:07;0.30;;;0.30;;
56712;SDS011;42589;45.536;9.032;2023-04-01T14:30:43;0.35;;;0.35;;
56712;SDS011;42589;45.536;9.032;2023-04-01T14:33:59;1.02;;;0.40;;
56712;SDS011;42589;45.536;9.032;2023-04-01T14:51:39;0.30;;;0.25;;
56712;SDS011;42589;45.536;9.032;2023-04-01T14:54:41;0.55;;;0.30;;
56712;SDS011;42589;45.536;9.032;2023-04-01T14:57:52;0.30;;;0.30;;
56712;SDS011;42589;45.536;9.032;2023-04-01T15:01:17;0.40;;;0.30;;
56712;SDS011;42589;45.536;9.032;2023-04-01T15:08:13;7.53;;;0.55;;
56712;SDS011;42589;45.536;9.032;2023-04-01T15:11:28;2.13;;;0.30;;
56712;SDS011;42589;45.536;9.032;2023-04-01T15:37:50;0.40;;;0.40;;
56712;SDS011;42589;45.536;9.032;2023-04-01T15:41:15;3.47;;;0.40;;
56712;SDS011;42589;45.536;9.032;2023-04-01T16:11:08;0.52;;;0.30;;
56712;SDS011;42589;45.536;9.032;2023-04-01T16:24:33;0.63;;;0.60;;
56712;SDS011;42589;45.536;9.032;2023-04-01T16:41:34;0.30;;;0.30;;
56712;SDS011;42589;45.536;9.032;2023-04-01T16:44:44;0.50;;;0.50;;
56712;SDS011;42589;45.536;9.032;2023-04-01T16:47:48;1.77;;;0.50;;
56712;SDS011;42589;45.536;9.032;2023-04-01T17:00:22;3.55;;;0.50;;
56712;SDS011;42589;45.536;9.032;2023-04-01T17:03:29;2.05;;;0.63;;
56712;SDS011;42589;45.536;9.032;2023-04-01T17:06:43;1.60;;;0.70;;
56712;SDS011;42589;45.536;9.032;2023-04-01T17:41:08;3.75;;;1.38;;
56712;SDS011;42589;45.536;9.032;2023-04-01T17:47:31;1.48;;;1.00;;
56712;SDS011;42589;45.536;9.032;2023-04-01T17:50:55;2.08;;;0.93;;
56712;SDS011;42589;45.536;9.032;2023-04-01T17:54:24;4.47;;;1.33;;
56712;SDS011;42589;45.536;9.032;2023-04-01T18:04:26;3.05;;;1.50;;
56712;SDS011;42589;45.536;9.032;2023-04-01T18:07:52;3.65;;;1.92;;
56712;SDS011;42589;45.536;9.032;2023-04-01T18:24:00;8.35;;;5.03;;
56712;SDS011;42589;45.536;9.032;2023-04-01T18:27:30;13.23;;;6.80;;
56712;SDS011;42589;45.536;9.032;2023-04-01T18:30:37;8.43;;;6.07;;
56712;SDS011;42589;45.536;9.032;2023-04-01T18:33:59;12.97;;;6.47;;
56712;SDS011;42589;45.536;9.032;2023-04-01T18:37:19;13.52;;;12.13;;
56712;SDS011;42589;45.536;9.032;2023-04-01T18:40:36;11.05;;;7.75;;
56712;SDS011;42589;45.536;9.032;2023-04-01T18:47:38;10.10;;;6.30;;
56712;SDS011;42589;45.536;9.032;2023-04-01T18:50:56;11.82;;;6.72;;
56712;SDS011;42589;45.536;9.032;2023-04-01T19:00:41;8.75;;;3.47;;
56712;SDS011;42589;45.536;9.032;2023-04-01T19:14:05;6.00;;;3.33;;
56712;SDS011;42589;45.536;9.032;2023-04-01T19:23:39;6.00;;;2.97;;
56712;SDS011;42589;45.536;9.032;2023-04-01T19:30:48;12.18;;;9.40;;
56712;SDS011;42589;45.536;9.032;2023-04-01T19:40:29;5.28;;;3.97;;
56712;SDS011;42589;45.536;9.032;2023-04-01T19:57:46;5.00;;;3.15;;
56712;SDS011;42589;45.536;9.032;2023-04-01T20:00:53;4.82;;;3.10;;
56712;SDS011;42589;45.536;9.032;2023-04-01T20:04:01;3.45;;;2.88;;
56712;SDS011;42589;45.536;9.032;2023-04-01T20:17:07;6.25;;;4.50;;
56712;SDS011;42589;45.536;9.032;2023-04-01T20:23:33;5.80;;;4.35;;
56712;SDS011;42589;45.536;9.032;2023-04-01T20:26:41;6.57;;;3.85;;
56712;SDS011;42589;45.536;9.032;2023-04-01T20:30:48;7.50;;;4.63;;
56712;SDS011;42589;45.536;9.032;2023-04-01T20:33:34;8.00;;;5.15;;
56712;SDS011;42589;45.536;9.032;2023-04-01T20:37:10;6.78;;;4.63;;
56712;SDS011;42589;45.536;9.032;2023-04-01T20:40:51;5.30;;;4.00;;
56712;SDS011;42589;45.536;9.032;2023-04-01T20:44:13;4.60;;;3.30;;
56712;SDS011;42589;45.536;9.032;2023-04-01T20:50:56;4.80;;;3.55;;
56712;SDS011;42589;45.536;9.032;2023-04-01T21:03:41;4.35;;;3.38;;
56712;SDS011;42589;45.536;9.032;2023-04-01T21:07:08;5.57;;;3.10;;
56712;SDS011;42589;45.536;9.032;2023-04-01T21:10:23;4.88;;;3.03;;
56712;SDS011;42589;45.536;9.032;2023-04-01T21:13:46;3.72;;;2.97;;
56712;SDS011;42589;45.536;9.032;2023-04-01T21:16:57;4.28;;;3.20;;
56712;SDS011;42589;45.536;9.032;2023-04-01T21:34:04;3.72;;;2.40;;
56712;SDS011;42589;45.536;9.032;2023-04-01T21:37:13;5.70;;;2.63;;
56712;SDS011;42589;45.536;9.032;2023-04-01T21:50:53;3.40;;;2.25;;
56712;SDS011;42589;45.536;9.032;2023-04-01T21:54:13;3.85;;;2.30;;
56712;SDS011;42589;45.536;9.032;2023-04-01T22:15:42;4.07;;;2.47;;
56712;SDS011;42589;45.536;9.032;2023-04-01T22:18:43;3.15;;;2.20;;
56712;SDS011;42589;45.536;9.032;2023-04-01T22:21:55;3.65;;;2.08;;
56712;SDS011;42589;45.536;9.032;2023-04-01T22:28:22;4.68;;;2.50;;
56712;SDS011;42589;45.536;9.032;2023-04-01T22:35:08;4.68;;;3.00;;
56712;SDS011;42589;45.536;9.032;2023-04-01T22:38:21;3.45;;;2.63;;
56712;SDS011;42589;45.536;9.032;2023-04-01T22:41:48;4.43;;;3.10;;
56712;SDS011;42589;45.536;9.032;2023-04-01T22:51:28;5.45;;;2.92;;
56712;SDS011;42589;45.536;9.032;2023-04-01T23:01:11;3.83;;;2.65;;
56712;SDS011;42589;45.536;9.032;2023-04-01T23:04:17;5.85;;;2.97;;
56712;SDS011;42589;45.536;9.032;2023-04-01T23:10:44;3.63;;;2.70;;
56712;SDS011;42589;45.536;9.032;2023-04-01T23:20:54;4.22;;;2.80;;
56712;SDS011;42589;45.536;9.032;2023-04-01T23:33:38;4.05;;;3.38;;
56712;SDS011;42589;45.536;9.032;2023-04-01T23:36:41;4.40;;;3.00;;
56712;SDS011;42589;45.536;9.032;2023-04-01T23:40:06;3.20;;;2.78;;
56712;SDS011;42589;45.536;9.032;2023-04-01T23:43:14;5.38;;;3.35;;
56712;SDS011;42589;45.536;9.032;2023-04-01T23:46:22;4.10;;;3.28;;
56712;SDS011;42589;45.536;9.032;2023-04-01T23:49:25;5.60;;;3.10;;
56712;SDS011;42589;45.536;9.032;2023-04-01T23:52:31;4.47;;;2.47;;
56712;SDS011;42589;45.536;9.032;2023-04-01T23:55:37;4.97;;;2.90;;
56712;SDS011;42589;45.536;9.032;2023-04-01T23:58:48;6.03;;;3.03;;
